Time;durP1;ratioP1;P1;durP2;ratioP2;P2;SDS_P1;SDS_P2;PMS_P1;PMS_P2;Temp;Humidity;BMP_temperature;BMP_pressure;BME280_temperature;BME280_humidity;BME280_pressure;Samples;Min_cycle;Max_cycle;Signal;HPM_P1;HPM_P2
2021/07/16 00:01:06;;;;;;;6.20;5.60;;;25.40;88.70;;;;;;5035029;28;20065;-83
2021/07/16 00:03:32;;;;;;;6.78;5.30;;;25.40;88.40;;;;;;5034972;28;20041;-83
2021/07/16 00:05:57;;;;;;;6.43;5.68;;;25.40;88.60;;;;;;5034943;28;20025;-83
2021/07/16 00:08:23;;;;;;;7.15;5.90;;;25.40;88.60;;;;;;5034842;28;20078;-83
2021/07/16 00:10:49;;;;;;;6.07;5.47;;;25.40;88.60;;;;;;5036081;28;20514;-83
2021/07/16 00:13:15;;;;;;;6.28;5.55;;;25.40;88.60;;;;;;5034734;28;20025;-83
2021/07/16 00:15:42;;;;;;;10.25;5.93;;;25.30;88.40;;;;;;5034916;28;20021;-83
2021/07/16 00:18:07;;;;;;;6.60;5.50;;;25.30;88.50;;;;;;5034655;28;20025;-83
2021/07/16 00:20:33;;;;;;;6.68;5.93;;;25.30;88.60;;;;;;5035882;28;20072;-83
2021/07/16 00:22:58;;;;;;;6.75;5.68;;;25.30;88.60;;;;;;5034646;28;20030;-83
2021/07/16 00:25:24;;;;;;;7.70;6.20;;;25.30;88.40;;;;;;5036093;28;20504;-83
2021/07/16 00:27:52;;;;;;;6.20;5.55;;;25.30;88.30;;;;;;5035777;28;20049;-83
2021/07/16 00:30:18;;;;;;;6.88;5.43;;;25.20;88.40;;;;;;5036047;28;20024;-83
2021/07/16 00:32:44;;;;;;;7.55;6.13;;;25.20;88.50;;;;;;5034251;28;20025;-83
2021/07/16 00:35:10;;;;;;;5.82;5.22;;;25.20;88.80;;;;;;5034081;28;20059;-83
2021/07/16 00:37:36;;;;;;;7.72;6.18;;;25.20;89.00;;;;;;5034356;28;20048;-83
2021/07/16 00:40:08;;;;;;;6.80;5.78;;;25.20;89.10;;;;;;5067552;28;20527;-83
2021/07/16 00:42:34;;;;;;;8.45;5.93;;;25.10;89.10;;;;;;5035520;28;20045;-83
2021/07/16 00:44:59;;;;;;;6.70;6.10;;;25.10;89.30;;;;;;5035458;28;20065;-83
2021/07/16 00:47:25;;;;;;;7.40;6.18;;;25.00;89.60;;;;;;5035384;28;20021;-83
2021/07/16 00:49:51;;;;;;;8.57;6.35;;;25.00;89.80;;;;;;5035332;28;20097;-83
2021/07/16 00:52:16;;;;;;;7.53;6.72;;;25.00;90.00;;;;;;5034064;28;20029;-83
2021/07/16 00:54:42;;;;;;;7.90;6.40;;;25.00;90.10;;;;;;5033908;28;20036;-83
2021/07/16 00:57:08;;;;;;;8.80;6.35;;;25.00;90.20;;;;;;5035247;28;20036;-83
2021/07/16 00:59:34;;;;;;;7.03;6.32;;;25.00;90.20;;;;;;5035158;28;20051;-82
2021/07/16 01:02:01;;;;;;;7.53;6.55;;;25.00;90.10;;;;;;5035643;28;20026;-83
2021/07/16 01:04:27;;;;;;;8.30;6.43;;;25.00;90.20;;;;;;5035101;28;20029;-83
2021/07/16 01:06:53;;;;;;;8.20;6.95;;;25.00;90.20;;;;;;5035040;28;20017;-83
2021/07/16 01:09:19;;;;;;;13.25;6.70;;;25.00;90.20;;;;;;5033752;28;20025;-83
2021/07/16 01:11:44;;;;;;;8.30;6.95;;;25.00;90.30;;;;;;5033648;28;20025;-83
2021/07/16 01:14:12;;;;;;;9.48;6.55;;;24.90;90.30;;;;;;5033617;28;20022;-83
2021/07/16 01:16:37;;;;;;;10.07;6.30;;;25.00;90.40;;;;;;5034728;28;20025;-83
2021/07/16 01:19:03;;;;;;;9.77;6.82;;;25.00;90.50;;;;;;5033553;28;20487;-83
2021/07/16 01:21:33;;;;;;;9.30;6.47;;;25.00;90.60;;;;;;5033527;28;20414;-83
2021/07/16 01:23:59;;;;;;;8.43;6.68;;;25.00;90.60;;;;;;5034678;28;20021;-83
2021/07/16 01:26:25;;;;;;;10.55;6.47;;;24.90;90.50;;;;;;5034703;28;20039;-83
2021/07/16 01:29:14;;;;;;;8.35;6.57;;;24.90;90.50;;;;;;5034461;28;20108;-83
2021/07/16 01:31:40;;;;;;;8.52;6.30;;;24.90;90.50;;;;;;5034596;28;20021;-82
2021/07/16 01:34:06;;;;;;;7.47;6.70;;;24.90;90.80;;;;;;5033055;28;20120;-82
2021/07/16 01:36:32;;;;;;;7.43;6.63;;;24.90;90.50;;;;;;5033115;28;20022;-83
2021/07/16 01:38:58;;;;;;;8.98;7.35;;;24.90;90.30;;;;;;5034376;28;20028;-83
2021/07/16 01:41:24;;;;;;;9.10;7.45;;;24.90;90.30;;;;;;5033130;28;20080;-83
2021/07/16 01:43:49;;;;;;;9.23;6.88;;;24.80;90.30;;;;;;5032683;28;20022;-83
2021/07/16 01:46:15;;;;;;;8.05;7.25;;;24.80;90.50;;;;;;5032931;28;20029;-83
2021/07/16 01:48:41;;;;;;;8.52;6.90;;;24.80;90.50;;;;;;5034270;28;20032;-83
2021/07/16 01:51:07;;;;;;;8.75;7.30;;;24.80;90.60;;;;;;5033981;28;20518;-83
2021/07/16 01:53:33;;;;;;;11.63;7.10;;;24.80;90.60;;;;;;5032897;28;20029;-83
2021/07/16 01:55:59;;;;;;;13.80;7.57;;;24.80;90.70;;;;;;5032743;28;20033;-82
2021/07/16 01:58:24;;;;;;;11.70;7.82;;;24.80;90.50;;;;;;5032862;28;20025;-83
2021/07/16 02:00:50;;;;;;;11.07;6.93;;;24.80;90.50;;;;;;5032735;28;20112;-83
2021/07/16 02:03:17;;;;;;;10.88;7.90;;;24.70;90.60;;;;;;5032987;28;20091;-83
2021/07/16 02:05:45;;;;;;;8.35;7.00;;;24.70;90.80;;;;;;5032716;28;20028;-83
2021/07/16 02:08:13;;;;;;;8.63;7.35;;;24.70;90.80;;;;;;5034119;28;20026;-83
2021/07/16 02:10:39;;;;;;;9.18;6.72;;;24.80;90.90;;;;;;5032545;28;20427;-82
2021/07/16 02:13:05;;;;;;;9.85;7.05;;;24.70;90.90;;;;;;5033909;28;20032;-83
2021/07/16 02:15:34;;;;;;;7.85;7.05;;;24.70;90.90;;;;;;5032552;28;20025;-83
2021/07/16 02:18:00;;;;;;;13.27;7.78;;;24.70;90.90;;;;;;5032537;28;20091;-83
2021/07/16 02:20:35;;;;;;;9.65;7.05;;;24.70;90.90;;;;;;5047085;28;20033;-83
2021/07/16 02:23:10;;;;;;;9.18;7.18;;;24.70;90.90;;;;;;5052414;28;20120;-83
2021/07/16 02:25:36;;;;;;;9.07;6.63;;;24.70;91.00;;;;;;5053988;28;20033;-82
2021/07/16 02:28:06;;;;;;;10.15;7.35;;;24.70;90.90;;;;;;5053883;28;20025;-83
2021/07/16 02:30:31;;;;;;;10.32;7.45;;;24.70;90.70;;;;;;5052263;28;20029;-83
2021/07/16 02:32:58;;;;;;;7.65;6.53;;;24.70;90.70;;;;;;5052317;28;20115;-83
2021/07/16 02:35:25;;;;;;;8.52;7.03;;;24.70;90.70;;;;;;5052014;28;20049;-83
2021/07/16 02:37:51;;;;;;;7.72;6.93;;;24.70;90.70;;;;;;5052191;28;20383;-83
2021/07/16 02:40:18;;;;;;;7.82;6.75;;;24.70;90.80;;;;;;5052228;28;20032;-83
2021/07/16 02:42:44;;;;;;;8.65;6.80;;;24.80;90.80;;;;;;5052173;28;20074;-83
2021/07/16 02:45:12;;;;;;;9.05;6.50;;;24.80;90.70;;;;;;5050147;28;20035;-82
2021/07/16 02:47:39;;;;;;;8.25;7.13;;;24.80;90.80;;;;;;5032253;28;20025;-83
2021/07/16 02:50:12;;;;;;;8.00;6.57;;;24.80;90.80;;;;;;5035036;28;20026;-83
2021/07/16 02:52:39;;;;;;;8.80;6.95;;;24.80;90.80;;;;;;5053358;28;20443;-83
2021/07/16 02:55:06;;;;;;;31.92;20.92;;;24.80;90.80;;;;;;5052014;28;20032;-83
2021/07/16 02:57:32;;;;;;;13.93;10.40;;;24.90;90.80;;;;;;5055941;28;20061;-83
2021/07/16 02:59:58;;;;;;;15.75;9.75;;;24.90;90.80;;;;;;5057387;28;20091;-83
2021/07/16 03:02:27;;;;;;;14.35;10.20;;;24.90;90.80;;;;;;5052458;28;20472;-83
2021/07/16 03:04:54;;;;;;;10.93;8.35;;;24.90;90.80;;;;;;5036337;28;20581;-83
2021/07/16 03:07:21;;;;;;;23.88;16.30;;;25.00;90.80;;;;;;5037310;28;20064;-83
2021/07/16 17:02:52;;;;;;;11.68;8.82;;;29.90;84.80;;;;;;5091649;27;20865;-93
2021/07/16 17:05:17;;;;;;;9.23;8.15;;;29.60;83.70;;;;;;5091107;28;20034;-94
2021/07/16 17:07:43;;;;;;;12.63;8.40;;;29.60;83.50;;;;;;5089476;28;20115;-94
2021/07/16 17:10:09;;;;;;;11.95;8.30;;;29.50;83.90;;;;;;5070619;28;20119;-95
2021/07/16 17:12:35;;;;;;;11.35;7.65;;;29.50;83.40;;;;;;5070672;28;20021;-93
2021/07/16 17:15:01;;;;;;;9.43;8.50;;;29.50;83.50;;;;;;5070440;28;20493;-91
2021/07/16 17:17:27;;;;;;;9.82;8.15;;;29.50;83.50;;;;;;5070229;28;20017;-94
2021/07/16 17:19:53;;;;;;;9.27;8.10;;;29.50;83.30;;;;;;5070014;28;20032;-89
2021/07/16 17:22:18;;;;;;;9.82;8.70;;;29.50;83.00;;;;;;5070103;28;20025;-95
2021/07/16 17:24:44;;;;;;;10.95;8.60;;;29.50;83.70;;;;;;5070060;28;20021;-93
2021/07/16 17:27:10;;;;;;;9.68;8.30;;;29.50;83.60;;;;;;5070198;28;20028;-92
2021/07/16 17:29:36;;;;;;;10.25;8.20;;;29.50;83.20;;;;;;5070417;28;20020;-95
2021/07/16 17:32:02;;;;;;;9.80;8.30;;;29.40;83.00;;;;;;5070736;28;20379;-96
2021/07/16 17:34:27;;;;;;;12.15;9.40;;;29.40;82.40;;;;;;5070399;28;20418;-92
2021/07/16 17:36:53;;;;;;;12.07;8.57;;;29.40;82.50;;;;;;5070237;28;20082;-94
2021/07/16 17:39:21;;;;;;;12.07;8.10;;;29.40;82.80;;;;;;5070603;28;20063;-92
2021/07/16 17:41:48;;;;;;;9.70;8.32;;;29.40;83.40;;;;;;5069862;28;20025;-93
2021/07/16 17:44:13;;;;;;;9.18;8.27;;;29.40;84.00;;;;;;5070021;28;20494;-95
2021/07/16 17:46:40;;;;;;;12.98;9.15;;;29.30;84.30;;;;;;5070611;28;20029;-94
2021/07/16 17:49:07;;;;;;;9.80;8.90;;;29.30;84.50;;;;;;5070951;28;20558;-95
2021/07/16 17:51:32;;;;;;;14.30;8.82;;;29.20;84.80;;;;;;5082172;28;20478;-92
2021/07/16 17:54:37;;;;;;;11.00;9.20;;;29.10;84.50;;;;;;5007467;28;1381311;-94
2021/07/16 17:57:03;;;;;;;20.10;12.43;;;29.10;85.00;;;;;;5050865;28;20088;-95
2021/07/16 17:59:29;;;;;;;15.07;9.60;;;29.10;84.90;;;;;;5053744;28;20526;-95
2021/07/16 18:01:54;;;;;;;10.50;8.07;;;29.10;85.00;;;;;;5053919;28;20108;-96
2021/07/16 18:04:21;;;;;;;10.38;8.45;;;29.10;85.50;;;;;;5055488;28;20348;-96
2021/07/16 18:06:50;;;;;;;8.57;7.78;;;29.10;86.30;;;;;;5050488;28;20033;-95
2021/07/16 18:09:16;;;;;;;11.70;9.00;;;29.00;86.00;;;;;;5052843;28;20026;-96
2021/07/16 18:11:42;;;;;;;10.63;8.75;;;29.00;85.90;;;;;;5053233;28;20471;-95
2021/07/16 18:14:11;;;;;;;10.18;8.35;;;29.00;86.50;;;;;;5053979;28;20036;-96
2021/07/16 18:16:36;;;;;;;9.90;8.23;;;28.90;86.70;;;;;;5035316;28;20467;-95
2021/07/16 18:19:02;;;;;;;8.80;8.00;;;28.90;87.00;;;;;;5050162;28;20021;-92
2021/07/16 18:21:28;;;;;;;8.70;7.82;;;28.90;87.00;;;;;;5050191;28;20537;-94
2021/07/16 18:23:54;;;;;;;10.27;9.27;;;28.90;87.20;;;;;;5050915;28;20030;-93
2021/07/16 18:26:20;;;;;;;10.40;9.50;;;28.90;88.90;;;;;;5050363;28;20029;-93
2021/07/16 18:28:47;;;;;;;9.77;8.55;;;28.80;89.10;;;;;;5049956;28;20025;-93
2021/07/16 18:31:13;;;;;;;9.55;8.52;;;28.70;88.60;;;;;;5050307;28;20116;-93
2021/07/16 18:33:40;;;;;;;12.30;9.18;;;28.80;88.80;;;;;;5049730;28;20129;-93
2021/07/16 18:36:08;;;;;;;10.48;8.98;;;28.70;88.70;;;;;;5049812;28;20112;-96
2021/07/16 18:38:34;;;;;;;10.25;9.20;;;28.70;88.70;;;;;;5051203;28;20029;-96
2021/07/16 18:41:00;;;;;;;12.57;9.48;;;28.60;88.40;;;;;;5049886;28;20060;-95
2021/07/16 18:43:26;;;;;;;10.13;8.98;;;28.60;88.60;;;;;;5048581;28;20052;-92
2021/07/16 18:45:52;;;;;;;11.82;9.40;;;28.60;89.30;;;;;;5049122;28;20115;-91
2021/07/16 18:48:17;;;;;;;12.45;9.57;;;28.50;89.60;;;;;;5048885;28;20029;-94
2021/07/16 18:50:43;;;;;;;10.13;9.13;;;28.50;89.50;;;;;;5049085;28;20056;-93
2021/07/16 18:53:09;;;;;;;10.65;9.63;;;28.50;89.70;;;;;;5048345;28;20060;-89
2021/07/16 18:55:35;;;;;;;10.02;9.05;;;28.50;90.00;;;;;;5049182;28;20463;-90
2021/07/16 18:58:00;;;;;;;13.57;10.20;;;28.50;90.20;;;;;;5037240;28;20034;-89
2021/07/16 19:00:26;;;;;;;12.38;10.15;;;28.40;91.00;;;;;;5029371;28;20041;-90
2021/07/16 19:02:52;;;;;;;67.47;28.10;;;28.40;91.10;;;;;;5029066;28;20061;-89
2021/07/16 19:05:18;;;;;;;91.03;32.90;;;28.20;91.70;;;;;;5020311;28;20084;-89
2021/07/16 19:07:45;;;;;;;14.40;12.38;;;28.10;98.50;;;;;;5016136;28;20022;-90
2021/07/16 19:10:12;;;;;;;11.52;10.43;;;27.80;98.30;;;;;;5033552;28;20061;-90
2021/07/16 19:12:38;;;;;;;11.90;10.70;;;27.40;98.50;;;;;;5035807;28;20520;-89
2021/07/16 19:15:06;;;;;;;14.10;10.63;;;27.00;98.50;;;;;;5035598;28;20396;-91
2021/07/16 19:17:32;;;;;;;13.40;12.00;;;26.80;98.60;;;;;;5035648;28;20021;-89
2021/07/16 19:20:03;;;;;;;11.88;10.68;;;26.60;98.40;;;;;;5035380;28;20071;-91
2021/07/16 19:22:28;;;;;;;11.32;10.23;;;26.50;98.50;;;;;;5029777;28;20026;-89
2021/07/16 19:24:54;;;;;;;11.98;10.40;;;26.50;98.60;;;;;;5016758;28;20022;-90
2021/07/16 19:27:20;;;;;;;12.05;10.95;;;26.50;98.10;;;;;;5015466;28;20022;-92
2021/07/16 19:29:46;;;;;;;14.88;13.27;;;26.60;97.90;;;;;;5015630;28;20075;-91
2021/07/16 19:32:12;;;;;;;15.10;13.40;;;26.80;97.90;;;;;;5015398;28;20091;-93
2021/07/16 19:34:38;;;;;;;12.05;10.90;;;26.80;97.40;;;;;;5015523;28;20026;-90
2021/07/16 19:37:08;;;;;;;12.32;11.02;;;27.00;97.10;;;;;;5015452;28;20160;-89
2021/07/16 19:39:34;;;;;;;12.60;10.88;;;27.10;96.80;;;;;;5015300;28;20062;-88
2021/07/16 19:42:01;;;;;;;12.43;10.52;;;27.20;96.60;;;;;;5015280;28;20029;-90
2021/07/16 19:44:26;;;;;;;11.50;10.40;;;27.30;96.40;;;;;;5015339;28;20527;-89
2021/07/16 19:46:54;;;;;;;11.05;9.77;;;27.40;96.20;;;;;;5015448;28;20117;-89
2021/07/16 19:49:23;;;;;;;11.25;10.07;;;27.40;96.30;;;;;;5015417;28;20030;-88
2021/07/16 19:51:49;;;;;;;19.15;14.70;;;27.50;96.00;;;;;;5015524;28;20033;-94
2021/07/16 19:54:15;;;;;;;12.38;10.43;;;27.50;95.90;;;;;;5015582;28;20455;-89
2021/07/16 19:56:41;;;;;;;15.13;12.73;;;27.50;95.90;;;;;;5015530;28;20469;-90
2021/07/16 19:59:07;;;;;;;14.82;12.82;;;27.50;95.80;;;;;;5015259;28;20022;-90
2021/07/16 20:01:33;;;;;;;12.93;11.60;;;27.50;95.70;;;;;;5015119;28;20528;-90
2021/07/16 20:04:00;;;;;;;13.48;10.07;;;27.60;95.70;;;;;;5018593;28;20026;-89
2021/07/16 20:06:26;;;;;;;12.02;9.57;;;27.60;95.70;;;;;;5035946;28;20057;-89
2021/07/16 20:08:51;;;;;;;10.57;9.10;;;27.50;95.70;;;;;;5034906;28;20025;-89
2021/07/16 20:11:18;;;;;;;11.93;10.00;;;27.50;95.80;;;;;;5034942;28;20025;-89
2021/07/16 20:13:44;;;;;;;10.13;8.95;;;27.50;95.90;;;;;;5034665;28;20116;-89
2021/07/16 20:16:10;;;;;;;10.40;9.27;;;27.50;95.80;;;;;;5033727;28;20021;-89
2021/07/16 20:18:36;;;;;;;13.20;9.32;;;27.50;96.00;;;;;;5025296;28;20361;-89
2021/07/16 20:21:02;;;;;;;10.60;9.50;;;27.40;96.20;;;;;;5015797;28;20097;-88
2021/07/16 20:23:30;;;;;;;12.13;10.13;;;27.40;96.20;;;;;;5028807;28;20040;-88
2021/07/16 20:25:56;;;;;;;11.98;9.70;;;27.40;95.90;;;;;;5018324;28;20030;-88
2021/07/16 20:28:47;;;;;;;13.57;10.18;;;27.40;96.00;;;;;;5014579;28;20037;-88
2021/07/16 20:31:12;;;;;;;12.50;8.95;;;27.40;95.50;;;;;;5015887;28;20033;-88
2021/07/16 20:33:38;;;;;;;10.25;9.13;;;27.40;96.00;;;;;;5014474;28;20033;-88
2021/07/16 20:36:04;;;;;;;9.25;8.35;;;27.40;96.10;;;;;;5014599;28;20052;-88
2021/07/16 20:38:30;;;;;;;10.48;9.13;;;27.40;96.20;;;;;;5027900;28;20476;-88
2021/07/16 20:40:56;;;;;;;9.98;8.98;;;27.30;95.90;;;;;;5034398;28;20104;-89
2021/07/16 20:43:22;;;;;;;10.23;8.82;;;27.30;95.80;;;;;;5035535;28;20523;-89
2021/07/16 20:45:50;;;;;;;10.23;9.20;;;27.30;95.70;;;;;;5034162;28;20121;-88
2021/07/16 20:48:16;;;;;;;10.80;9.70;;;27.30;95.70;;;;;;5034043;28;20025;-89
2021/07/16 20:50:42;;;;;;;11.18;9.63;;;27.30;95.50;;;;;;5035234;28;20055;-88
2021/07/16 20:53:08;;;;;;;11.80;9.57;;;27.30;95.50;;;;;;5034039;28;20392;-88
2021/07/16 20:55:33;;;;;;;10.32;9.32;;;27.30;95.40;;;;;;5034030;28;20025;-89
2021/07/16 20:57:59;;;;;;;13.55;8.75;;;27.30;95.20;;;;;;5035090;28;20030;-88
2021/07/16 21:00:25;;;;;;;11.05;9.02;;;27.30;95.10;;;;;;5033815;28;20021;-88
2021/07/16 21:02:51;;;;;;;10.30;9.23;;;27.30;95.00;;;;;;5035022;28;20025;-88
2021/07/16 21:05:16;;;;;;;13.52;9.55;;;27.30;95.00;;;;;;5033644;28;20029;-88
2021/07/16 21:07:45;;;;;;;9.40;8.45;;;27.20;94.80;;;;;;5033825;28;20080;-88
2021/07/16 21:10:16;;;;;;;11.10;9.93;;;27.20;94.80;;;;;;5034755;28;20108;-89
2021/07/16 21:12:42;;;;;;;11.10;9.48;;;27.20;94.70;;;;;;5033687;28;20399;-89
2021/07/16 21:15:08;;;;;;;15.23;9.75;;;27.20;94.70;;;;;;5033675;28;20033;-88
2021/07/16 21:17:34;;;;;;;10.65;9.63;;;27.20;94.80;;;;;;5033654;28;20468;-89
2021/07/16 21:20:00;;;;;;;11.02;8.50;;;27.20;94.80;;;;;;5034377;28;20112;-89
2021/07/16 21:22:25;;;;;;;10.57;9.45;;;27.20;94.80;;;;;;5034610;28;20045;-88
2021/07/16 21:24:52;;;;;;;9.68;8.68;;;27.20;94.90;;;;;;5034699;28;20022;-88
2021/07/16 21:27:18;;;;;;;14.70;9.10;;;27.20;95.00;;;;;;5033568;28;20490;-87
2021/07/16 21:29:44;;;;;;;9.10;8.23;;;27.20;95.20;;;;;;5033548;28;20022;-88
2021/07/16 21:32:10;;;;;;;9.10;8.25;;;27.20;95.20;;;;;;5034696;28;20106;-88
2021/07/16 21:34:35;;;;;;;9.50;8.07;;;27.20;95.20;;;;;;5034400;28;20033;-89
2021/07/16 21:37:01;;;;;;;9.75;8.65;;;27.10;95.20;;;;;;5033417;28;20132;-89
2021/07/16 21:39:27;;;;;;;10.93;8.23;;;27.10;95.40;;;;;;5032707;28;20025;-88
2021/07/16 21:41:53;;;;;;;9.70;8.70;;;27.10;95.40;;;;;;5033244;28;20108;-88
2021/07/16 21:44:19;;;;;;;9.57;8.55;;;27.00;95.40;;;;;;5033325;28;20386;-88
2021/07/16 21:46:44;;;;;;;9.73;8.73;;;27.00;95.50;;;;;;5033312;28;20022;-89
2021/07/16 21:49:10;;;;;;;9.88;8.90;;;26.90;95.50;;;;;;5033217;28;20057;-89
2021/07/16 21:51:36;;;;;;;14.15;9.45;;;26.90;95.60;;;;;;5033449;28;20129;-88
2021/07/16 21:54:02;;;;;;;9.70;8.75;;;26.90;95.70;;;;;;5021937;28;20048;-89
2021/07/16 21:56:27;;;;;;;9.32;8.43;;;26.80;95.80;;;;;;5013470;28;20038;-89
2021/07/16 21:58:53;;;;;;;10.10;8.88;;;26.80;95.80;;;;;;5013402;28;20026;-88
2021/07/16 22:01:19;;;;;;;11.30;8.93;;;26.70;96.20;;;;;;5013266;28;20113;-89
2021/07/16 22:03:45;;;;;;;9.68;8.68;;;26.70;96.00;;;;;;5013492;28;20026;-88
2021/07/16 22:06:11;;;;;;;9.95;9.02;;;26.60;96.00;;;;;;5014398;28;20022;-89
2021/07/16 22:08:37;;;;;;;10.50;9.35;;;26.60;96.10;;;;;;5017251;28;20040;-88
2021/07/16 22:11:03;;;;;;;11.32;9.40;;;26.60;96.20;;;;;;5033129;28;20036;-88
2021/07/16 22:13:28;;;;;;;10.10;9.10;;;26.50;96.30;;;;;;5032905;28;20032;-88
2021/07/16 22:15:54;;;;;;;12.52;9.45;;;26.50;96.30;;;;;;5034356;28;20017;-88
2021/07/16 22:18:20;;;;;;;10.93;9.20;;;26.40;96.40;;;;;;5032983;28;20120;-88
2021/07/16 22:20:45;;;;;;;10.63;9.52;;;26.40;96.40;;;;;;5032961;28;20032;-88
2021/07/16 22:23:11;;;;;;;12.02;10.32;;;26.40;96.50;;;;;;5034030;28;20117;-88
2021/07/16 22:25:37;;;;;;;11.30;10.05;;;26.30;96.50;;;;;;5015595;28;20080;-88
2021/07/16 22:28:04;;;;;;;10.90;9.80;;;26.40;96.50;;;;;;5013072;28;20084;-88
2021/07/16 22:30:30;;;;;;;10.63;9.52;;;26.30;96.50;;;;;;5013998;28;20033;-88
2021/07/16 22:32:56;;;;;;;10.90;9.90;;;26.30;96.60;;;;;;5013066;28;20392;-88
2021/07/16 22:35:22;;;;;;;10.40;9.25;;;26.30;96.60;;;;;;5013155;28;20113;-89
2021/07/16 22:37:49;;;;;;;10.38;9.32;;;26.30;96.60;;;;;;5013081;28;20033;-89
2021/07/16 22:40:15;;;;;;;10.07;9.07;;;26.20;96.70;;;;;;5025197;28;20132;-88
2021/07/16 22:42:41;;;;;;;11.43;10.13;;;26.20;96.70;;;;;;5037571;28;20033;-89
2021/07/16 22:45:11;;;;;;;10.68;9.40;;;26.20;96.70;;;;;;5037673;28;20041;-88
2021/07/16 22:47:38;;;;;;;12.10;9.52;;;26.10;96.70;;;;;;5036521;28;20021;-88
2021/07/16 22:50:04;;;;;;;10.10;9.10;;;26.10;96.80;;;;;;5036334;28;20531;-89
2021/07/16 22:52:30;;;;;;;13.15;10.00;;;26.10;96.80;;;;;;5037114;28;20116;-88
2021/07/16 22:54:56;;;;;;;11.20;10.10;;;26.10;96.80;;;;;;5037718;28;20104;-89
2021/07/16 22:57:21;;;;;;;13.45;10.70;;;26.00;96.80;;;;;;5037373;28;20041;-88
2021/07/16 22:59:47;;;;;;;10.88;9.73;;;26.00;96.80;;;;;;5037553;28;20022;-88
2021/07/16 23:02:13;;;;;;;11.65;10.50;;;26.00;96.90;;;;;;5036243;28;20048;-88
2021/07/16 23:04:39;;;;;;;11.27;10.07;;;26.00;97.00;;;;;;5036151;28;20060;-89
2021/07/16 23:07:04;;;;;;;13.55;9.88;;;26.00;97.00;;;;;;5036104;28;20025;-89
2021/07/16 23:09:30;;;;;;;12.68;10.02;;;26.00;97.00;;;;;;5035982;28;20068;-89
2021/07/16 23:11:56;;;;;;;11.80;10.63;;;25.90;97.10;;;;;;5036099;28;20032;-88
2021/07/16 23:14:21;;;;;;;13.23;11.07;;;25.90;97.20;;;;;;5035906;28;20435;-89
2021/07/16 23:16:47;;;;;;;13.93;10.50;;;25.90;97.30;;;;;;5033581;28;20132;-89
2021/07/16 23:19:13;;;;;;;12.40;10.35;;;25.90;97.40;;;;;;5016074;28;20124;-89
2021/07/16 23:21:39;;;;;;;13.00;10.73;;;25.90;97.50;;;;;;5015981;28;20029;-89
2021/07/16 23:24:05;;;;;;;12.13;10.45;;;25.90;97.60;;;;;;5016044;28;20116;-89
2021/07/16 23:26:31;;;;;;;12.13;10.93;;;25.90;97.60;;;;;;5016078;28;20128;-89
2021/07/16 23:28:57;;;;;;;12.10;10.80;;;25.90;97.70;;;;;;5015917;28;20026;-89
2021/07/16 23:31:23;;;;;;;12.13;10.93;;;25.90;97.70;;;;;;5015932;28;20037;-89
2021/07/16 23:33:50;;;;;;;12.38;11.18;;;26.00;97.70;;;;;;5015724;28;20035;-89
2021/07/16 23:36:16;;;;;;;11.43;10.25;;;25.90;97.70;;;;;;5015892;28;20026;-89
2021/07/16 23:38:42;;;;;;;12.52;11.32;;;25.90;97.80;;;;;;5015716;28;20048;-89
2021/07/16 23:41:08;;;;;;;12.27;11.07;;;25.90;97.80;;;;;;5016701;28;20369;-89
2021/07/16 23:43:34;;;;;;;12.88;11.55;;;25.90;97.90;;;;;;5016924;28;20030;-88
2021/07/16 23:46:00;;;;;;;13.77;11.50;;;25.80;98.00;;;;;;5015856;28;20022;-89
2021/07/16 23:48:26;;;;;;;12.38;11.18;;;25.90;98.20;;;;;;5016851;28;20473;-89
2021/07/16 23:50:52;;;;;;;17.10;12.00;;;25.90;98.10;;;;;;5015390;28;20064;-89
2021/07/16 23:53:17;;;;;;;14.00;12.48;;;25.90;98.40;;;;;;5015162;28;20046;-89
2021/07/16 23:55:43;;;;;;;13.68;12.25;;;25.90;98.70;;;;;;5016463;28;20026;-89
2021/07/16 23:58:09;;;;;;;14.70;12.10;;;26.00;98.50;;;;;;5016402;28;20523;-88
